Time;durP1;ratioP1;P1;durP2;ratioP2;P2;SDS_P1;SDS_P2;PMS_P1;PMS_P2;Temp;Humidity;BMP_temperature;BMP_pressure;BME280_temperature;BME280_humidity;BME280_pressure;Samples;Min_cycle;Max_cycle;Signal;HPM_P1;HPM_P2
2022/02/08 00:00:08;;;;;;;22.53;6.70;;;1.40;99.90;;;;;;5102341;28;20393;-83
2022/02/08 00:02:37;;;;;;;22.03;6.73;;;1.50;99.90;;;;;;5078532;28;20181;-83
2022/02/08 00:05:06;;;;;;;14.57;5.47;;;1.50;99.90;;;;;;5077677;28;20208;-83
2022/02/08 00:07:33;;;;;;;25.63;5.77;;;1.50;99.90;;;;;;5078058;28;20603;-82
2022/02/08 00:09:59;;;;;;;16.77;6.17;;;;;;;;;;5078382;28;20183;-82
2022/02/08 00:12:24;;;;;;;15.23;5.00;;;1.50;99.90;;;;;;5094687;28;20189;-82
2022/02/08 00:14:52;;;;;;;10.73;4.90;;;2.80;99.90;;;;;;5077936;28;20186;-82
2022/02/08 00:17:17;;;;;;;15.00;5.20;;;1.50;99.90;;;;;;5061030;28;20213;-82
2022/02/08 00:19:43;;;;;;;19.17;6.63;;;3.60;99.90;;;;;;5077982;28;20204;-82
2022/02/08 00:22:09;;;;;;;16.57;5.40;;;;;;;;;;5077361;28;20186;-82
2022/02/08 00:24:35;;;;;;;18.17;4.60;;;1.50;99.90;;;;;;5094617;28;20209;-82
2022/02/08 00:27:01;;;;;;;18.87;5.63;;;2.00;99.90;;;;;;5077628;28;20179;-82
2022/02/08 00:29:26;;;;;;;24.23;5.87;;;1.30;99.90;;;;;;5060733;28;20179;-82
2022/02/08 00:31:52;;;;;;;16.07;5.10;;;1.60;99.90;;;;;;5095751;28;20508;-82
2022/02/08 00:34:18;;;;;;;13.50;4.30;;;2.80;99.90;;;;;;5077109;28;20198;-82
2022/02/08 00:36:44;;;;;;;15.40;4.07;;;1.50;99.90;;;;;;5077295;28;20192;-83
2022/02/08 00:39:10;;;;;;;12.67;5.00;;;1.60;99.90;;;;;;5077181;28;20175;-83
2022/02/08 00:41:37;;;;;;;15.13;4.97;;;;;;;;;;5077436;28;20181;-82
2022/02/08 00:44:10;;;;;;;12.43;3.43;;;2.20;99.90;;;;;;5094343;28;20175;-82
2022/02/08 00:49:04;;;;;;;14.23;4.17;;;1.60;99.90;;;;;;5077377;28;20197;-82
2022/02/08 00:51:40;;;;;;;17.37;5.17;;;1.70;99.90;;;;;;5060776;28;20178;-83
2022/02/08 00:54:06;;;;;;;15.57;3.73;;;1.60;99.90;;;;;;5061616;28;20174;-82
2022/02/08 00:56:31;;;;;;;15.50;4.33;;;1.60;99.90;;;;;;5077136;28;20208;-82
2022/02/08 00:58:57;;;;;;;16.17;4.30;;;1.80;99.90;;;;;;5065812;28;20614;-83
2022/02/08 01:01:23;;;;;;;20.20;4.60;;;;;;;;;;5096946;28;20309;-83
2022/02/08 01:03:49;;;;;;;13.03;3.77;;;1.50;99.90;;;;;;5114593;28;20185;-82
2022/02/08 01:06:16;;;;;;;18.27;4.30;;;1.60;99.90;;;;;;5115414;28;20179;-82
2022/02/08 01:08:42;;;;;;;13.87;3.73;;;1.80;99.90;;;;;;5114320;28;20634;-82
2022/02/08 01:11:10;;;;;;;19.30;4.10;;;1.60;99.90;;;;;;5115178;28;20197;-82
2022/02/08 01:13:37;;;;;;;13.37;4.40;;;1.70;99.90;;;;;;5114031;28;20268;-82
2022/02/08 01:16:04;;;;;;;15.13;4.10;;;1.90;99.90;;;;;;5097139;28;20197;-82
2022/02/08 01:18:32;;;;;;;24.97;4.83;;;1.70;99.90;;;;;;5113800;28;20186;-82
2022/02/08 01:20:58;;;;;;;21.60;4.33;;;3.50;99.90;;;;;;5113715;28;20241;-82
2022/02/08 01:23:24;;;;;;;14.37;4.37;;;1.80;99.90;;;;;;5096582;28;20288;-83
2022/02/08 01:25:54;;;;;;;11.10;3.57;;;3.00;99.90;;;;;;5113735;28;20623;-82
2022/02/08 01:28:37;;;;;;;15.57;4.43;;;;;;;;;;5097172;28;20182;-83
2022/02/08 01:31:06;;;;;;;19.70;3.77;;;1.80;99.90;;;;;;5115064;28;20166;-83
2022/02/08 01:39:07;;;;;;;18.33;4.27;;;1.90;99.90;;;;;;5113305;28;20193;-82
2022/02/08 01:51:53;;;;;;;26.87;4.43;;;2.00;99.90;;;;;;5114353;28;20178;-82
2022/02/08 01:54:18;;;;;;;19.17;4.37;;;1.90;99.90;;;;;;5114529;28;20165;-82
2022/02/08 01:56:44;;;;;;;17.80;3.53;;;1.90;99.90;;;;;;5096178;28;20188;-82
2022/02/08 01:59:10;;;;;;;14.90;3.90;;;2.10;99.90;;;;;;5078908;28;20242;-82
2022/02/08 02:01:36;;;;;;;13.67;3.90;;;2.00;99.90;;;;;;5113660;28;20199;-82
2022/02/08 02:04:02;;;;;;;18.07;4.43;;;2.20;99.90;;;;;;5112556;28;20178;-82
2022/02/08 02:06:28;;;;;;;12.30;3.67;;;1.90;99.90;;;;;;5112377;28;20185;-82
2022/02/08 02:08:53;;;;;;;15.50;4.83;;;3.00;99.90;;;;;;5112989;28;20181;-82
2022/02/08 02:11:19;;;;;;;13.20;3.90;;;1.90;99.90;;;;;;5112660;28;20182;-83
2022/02/08 02:13:50;;;;;;;18.97;3.97;;;2.00;99.90;;;;;;5112353;28;20657;-83
2022/02/08 02:16:23;;;;;;;19.37;4.47;;;1.80;99.90;;;;;;5112940;28;20158;-87
2022/02/08 02:18:48;;;;;;;13.23;3.70;;;4.20;99.90;;;;;;5114064;28;20170;-83
2022/02/08 02:21:15;;;;;;;17.33;4.43;;;1.90;99.90;;;;;;5112761;28;20217;-82
2022/02/08 02:23:48;;;;;;;22.47;6.17;;;2.10;99.90;;;;;;5113999;28;20185;-82
2022/02/08 02:26:14;;;;;;;17.93;5.20;;;;;;;;;;5112621;28;20185;-82
2022/02/08 02:28:40;;;;;;;22.73;4.97;;;2.00;99.90;;;;;;5114014;28;20173;-82
2022/02/08 02:31:06;;;;;;;19.80;4.20;;;1.80;99.90;;;;;;5112452;28;20656;-82
2022/02/08 02:33:31;;;;;;;17.67;4.13;;;1.80;99.90;;;;;;5113404;28;20173;-83
2022/02/08 02:35:57;;;;;;;13.43;4.20;;;2.10;99.90;;;;;;5113848;28;20626;-82
2022/02/08 02:38:24;;;;;;;16.00;4.37;;;2.40;99.90;;;;;;5095386;28;20193;-82
2022/02/08 02:40:52;;;;;;;19.00;4.63;;;2.10;99.90;;;;;;5112451;28;20266;-82
2022/02/08 02:43:18;;;;;;;22.60;5.40;;;2.00;99.90;;;;;;5113657;28;20174;-82
2022/02/08 02:45:44;;;;;;;19.53;4.43;;;;;;;;;;5113538;28;20197;-82
2022/02/08 02:48:10;;;;;;;19.03;3.57;;;2.00;99.90;;;;;;5112086;28;20274;-82
2022/02/08 02:50:36;;;;;;;19.00;5.37;;;2.10;99.90;;;;;;5094950;28;20198;-83
2022/02/08 02:53:03;;;;;;;16.20;3.90;;;3.90;99.90;;;;;;5113309;28;20629;-82
2022/02/08 02:55:32;;;;;;;18.90;4.53;;;2.70;99.90;;;;;;5111975;28;20645;-83
2022/02/08 02:57:59;;;;;;;12.63;4.57;;;2.10;99.90;;;;;;5112336;28;20178;-82
2022/02/08 03:00:41;;;;;;;17.07;5.10;;;;;;;;;;5096848;28;20233;-83
2022/02/08 03:19:11;;;;;;;13.33;4.60;;;;;;;;;;5067907;28;20193;-82
2022/02/08 03:21:36;;;;;;;24.47;5.77;;;2.10;99.90;;;;;;5095628;28;20254;-83
2022/02/08 03:24:02;;;;;;;12.90;4.67;;;2.00;99.90;;;;;;5097365;28;20199;-82
2022/02/08 03:26:28;;;;;;;18.10;5.73;;;;;;;;;;5062400;28;20183;-83
2022/02/08 03:28:54;;;;;;;15.23;5.43;;;2.20;99.90;;;;;;5096104;28;20218;-83
2022/02/08 03:31:19;;;;;;;23.83;6.00;;;2.20;99.90;;;;;;5062402;28;20599;-82
2022/02/08 03:33:46;;;;;;;24.63;4.90;;;2.10;99.90;;;;;;5078669;28;20647;-82
2022/02/08 03:36:12;;;;;;;21.90;4.47;;;2.30;99.90;;;;;;5062702;28;20175;-82
2022/02/08 03:38:42;;;;;;;19.77;5.73;;;2.80;99.90;;;;;;5062094;28;20185;-82
2022/02/08 03:41:10;;;;;;;18.83;3.90;;;;;;;;;;5078912;28;20244;-82
2022/02/08 03:43:38;;;;;;;16.57;4.83;;;2.00;99.90;;;;;;5097343;28;20179;-82
2022/02/08 03:46:08;;;;;;;20.87;5.37;;;;;;;;;;5078885;28;20236;-82
2022/02/08 03:48:36;;;;;;;22.07;4.70;;;2.10;99.90;;;;;;5096980;28;20254;-83
2022/02/08 03:51:16;;;;;;;17.33;5.03;;;2.20;99.90;;;;;;5078918;28;20179;-82
2022/02/08 03:53:44;;;;;;;27.17;5.63;;;2.00;99.90;;;;;;5064014;28;20232;-82
2022/02/08 03:56:12;;;;;;;21.67;5.47;;;1.90;99.90;;;;;;5078475;28;20239;-82
2022/02/08 03:58:38;;;;;;;18.33;5.07;;;;;;;;;;5085910;28;20194;-82
2022/02/08 04:03:34;;;;;;;18.73;5.80;;;;;;;;;;5117366;28;20186;-84
2022/02/08 04:06:01;;;;;;;18.77;5.87;;;1.80;99.90;;;;;;5086483;28;20181;-83
2022/02/08 04:08:29;;;;;;;27.67;6.03;;;1.90;99.90;;;;;;5102287;28;20185;-82
2022/02/08 04:10:58;;;;;;;21.50;5.83;;;1.80;99.90;;;;;;5103669;28;20187;-83
2022/02/08 04:13:29;;;;;;;22.57;5.63;;;1.50;99.90;;;;;;5120852;28;20150;-83
2022/02/08 04:16:06;;;;;;;24.57;6.10;;;;;;;;;;5087533;28;20238;-83
2022/02/08 04:35:21;;;;;;;22.23;6.20;;;2.00;99.90;;;;;;5084753;28;20174;-82
2022/02/08 04:38:11;;;;;;;14.27;5.00;;;2.00;99.90;;;;;;5097326;28;20192;-82
2022/02/08 04:45:52;;;;;;;26.50;5.97;;;2.00;99.90;;;;;;5096768;28;20534;-83
2022/02/08 04:50:46;;;;;;;23.90;6.17;;;;;;;;;;5078308;28;20243;-83
2022/02/08 04:53:21;;;;;;;16.37;4.30;;;;;;;;;;5061801;28;20651;-83
2022/02/08 04:55:59;;;;;;;21.57;6.27;;;;;;;;;;5095619;28;20189;-82
2022/02/08 05:01:12;;;;;;;24.33;5.77;;;2.20;99.90;;;;;;5114902;28;20248;-82
2022/02/08 05:41:54;;;;;;;17.93;6.47;;;1.70;99.90;;;;;;5114380;28;20651;-82
2022/02/08 05:46:53;;;;;;;21.77;7.00;;;1.50;99.90;;;;;;5113176;28;20205;-82
2022/02/08 05:49:39;;;;;;;21.30;8.13;;;1.80;99.90;;;;;;5112681;28;20545;-82
2022/02/08 05:54:41;;;;;;;18.53;6.70;;;1.60;99.90;;;;;;5105492;28;20333;-88
2022/02/08 05:57:08;;;;;;;20.97;6.03;;;1.80;99.90;;;;;;5108146;28;20607;-84
2022/02/08 05:59:34;;;;;;;11.83;5.67;;;;;;;;;;5101026;28;20230;-84
2022/02/08 06:02:00;;;;;;;18.50;6.33;;;1.90;99.90;;;;;;5063599;28;20205;-82
2022/02/08 06:04:26;;;;;;;21.30;6.67;;;;;;;;;;5075685;28;20184;-85
2022/02/08 06:06:52;;;;;;;12.17;5.50;;;1.80;99.90;;;;;;5060356;28;20762;-83
2022/02/08 06:09:19;;;;;;;12.83;5.40;;;;;;;;;;5050415;28;20211;-84
2022/02/08 06:11:45;;;;;;;12.67;5.77;;;1.50;99.90;;;;;;5067355;28;20230;-83
2022/02/08 06:14:10;;;;;;;16.27;5.97;;;3.10;99.90;;;;;;5048217;28;20187;-83
2022/02/08 06:16:36;;;;;;;11.70;4.70;;;;;;;;;;5060898;28;20552;-82
2022/02/08 06:19:06;;;;;;;12.00;5.07;;;1.70;99.90;;;;;;5095272;28;20236;-82
2022/02/08 06:21:32;;;;;;;13.17;5.40;;;3.20;99.90;;;;;;5073677;28;20202;-85
2022/02/08 06:23:58;;;;;;;18.17;6.17;;;1.80;99.90;;;;;;5070836;28;20708;-85
2022/02/08 06:26:24;;;;;;;11.73;6.00;;;1.60;99.90;;;;;;5068380;28;20571;-85
2022/02/08 06:29:03;;;;;;;15.77;5.77;;;1.80;99.90;;;;;;5058186;28;20182;-86
2022/02/08 06:31:29;;;;;;;8.13;4.20;;;2.50;99.90;;;;;;5071999;28;20746;-84
2022/02/08 06:33:55;;;;;;;23.80;7.07;;;;;;;;;;5057555;28;20186;-85
2022/02/08 06:36:21;;;;;;;21.17;7.10;;;1.90;99.90;;;;;;5060999;28;20636;-85
2022/02/08 06:38:46;;;;;;;23.30;9.50;;;2.20;99.90;;;;;;5060796;28;20197;-85
2022/02/08 06:41:12;;;;;;;20.20;7.70;;;1.90;99.90;;;;;;5060552;28;20559;-84
2022/02/08 06:43:38;;;;;;;20.30;7.60;;;1.90;99.90;;;;;;5068195;28;20195;-84
2022/02/08 06:46:04;;;;;;;23.83;9.30;;;1.80;99.90;;;;;;5064046;28;20186;-85
2022/02/08 06:48:30;;;;;;;20.83;8.73;;;;;;;;;;5071979;28;20186;-85
2022/02/08 06:50:57;;;;;;;26.50;9.67;;;2.00;99.90;;;;;;5074911;28;20536;-85
2022/02/08 06:53:23;;;;;;;25.00;7.07;;;2.30;99.90;;;;;;5058430;28;20198;-85
2022/02/08 06:55:50;;;;;;;15.97;6.43;;;2.50;99.90;;;;;;5059820;28;20669;-86
2022/02/08 06:58:18;;;;;;;21.43;7.20;;;;;;;;;;5074933;28;20293;-86
2022/02/08 07:00:46;;;;;;;19.77;6.63;;;2.10;99.90;;;;;;5096128;28;20274;-85
2022/02/08 07:03:15;;;;;;;17.23;6.73;;;2.30;99.90;;;;;;5086321;28;20214;-85
2022/02/08 07:05:42;;;;;;;19.20;8.53;;;2.10;99.90;;;;;;5102956;28;20186;-85
2022/02/08 07:08:09;;;;;;;23.90;8.67;;;2.40;99.90;;;;;;5106167;28;20243;-87
2022/02/08 07:10:35;;;;;;;15.70;5.73;;;2.60;99.90;;;;;;5111586;28;20197;-87
2022/02/08 07:13:03;;;;;;;23.23;10.37;;;2.10;99.90;;;;;;5074355;28;20186;-86
2022/02/08 07:15:29;;;;;;;26.97;7.57;;;;;;;;;;5106132;28;20174;-85
2022/02/08 07:17:55;;;;;;;16.33;6.23;;;;;;;;;;5104724;28;20591;-85
2022/02/08 07:20:20;;;;;;;17.77;6.97;;;2.10;99.90;;;;;;5106417;28;20214;-85
2022/02/08 07:22:47;;;;;;;26.23;6.23;;;2.20;99.90;;;;;;5093623;28;20190;-85
2022/02/08 07:25:13;;;;;;;16.03;6.60;;;;;;;;;;5108655;28;20186;-88
2022/02/08 07:27:39;;;;;;;24.63;9.30;;;;;;;;;;5108569;28;20251;-86
2022/02/08 07:30:13;;;;;;;19.00;5.33;;;2.20;99.90;;;;;;5101927;28;20186;-87
2022/02/08 07:32:40;;;;;;;15.60;5.07;;;2.30;99.90;;;;;;5104854;28;20175;-87
2022/02/08 07:37:56;;;;;;;21.43;5.20;;;;;;;;;;5112854;28;20190;-86
2022/02/08 07:40:42;;;;;;;11.17;5.00;;;;;;;;;;5095686;28;20231;-85
2022/02/08 07:43:08;;;;;;;13.73;4.30;;;2.30;99.90;;;;;;5106002;28;20661;-85
2022/02/08 07:45:33;;;;;;;9.90;4.23;;;2.80;99.90;;;;;;5101061;28;20182;-85
2022/02/08 07:48:02;;;;;;;13.53;4.77;;;2.40;99.90;;;;;;5108460;28;20218;-87
2022/02/08 07:50:28;;;;;;;11.90;4.67;;;;;;;;;;5108623;28;20224;-86
2022/02/08 07:52:54;;;;;;;15.10;4.13;;;;;;;;;;5112812;28;20199;-86
2022/02/08 07:55:21;;;;;;;8.80;4.60;;;2.40;99.90;;;;;;5111096;28;20191;-88
2022/02/08 07:57:47;;;;;;;14.47;4.27;;;;;;;;;;5107569;28;20237;-85
2022/02/08 08:00:14;;;;;;;11.27;4.00;;;2.40;99.90;;;;;;5084759;28;20230;-85
2022/02/08 08:02:41;;;;;;;10.20;3.37;;;2.50;99.90;;;;;;5067031;28;20182;-85
2022/02/08 08:05:07;;;;;;;13.90;5.27;;;2.50;99.90;;;;;;5061452;28;20716;-86
2022/02/08 08:07:34;;;;;;;16.03;3.67;;;;;;;;;;5078720;28;20215;-85
2022/02/08 08:10:02;;;;;;;11.93;4.10;;;;;;;;;;5079289;28;20187;-86
2022/02/08 08:12:28;;;;;;;11.17;4.43;;;;;;;;;;5067302;28;20231;-86
2022/02/08 08:14:56;;;;;;;15.63;6.20;;;2.70;99.90;;;;;;5098343;28;20183;-85
2022/02/08 08:19:53;;;;;;;18.13;7.17;;;;;;;;;;5069675;28;20211;-87
2022/02/08 08:22:19;;;;;;;14.87;5.63;;;2.60;99.90;;;;;;5068504;28;20277;-85
2022/02/08 08:24:45;;;;;;;14.13;5.07;;;;;;;;;;5096884;28;20263;-85
2022/02/08 08:27:12;;;;;;;10.67;4.40;;;2.60;99.90;;;;;;5086887;28;20182;-85
2022/02/08 08:29:38;;;;;;;19.10;4.30;;;;;;;;;;5060023;28;20175;-85
2022/02/08 08:32:05;;;;;;;18.23;4.23;;;2.50;99.90;;;;;;5097350;28;20179;-85
2022/02/08 08:34:32;;;;;;;9.87;4.20;;;2.50;99.90;;;;;;5078562;28;20644;-85
2022/02/08 08:36:57;;;;;;;17.60;4.27;;;2.50;99.90;;;;;;5083957;28;20209;-86
2022/02/08 08:39:28;;;;;;;17.70;5.27;;;2.50;99.90;;;;;;5089492;28;20188;-87
2022/02/08 08:52:10;;;;;;;16.40;5.10;;;3.30;99.90;;;;;;5049211;28;20187;-84
2022/02/08 08:54:36;;;;;;;12.77;3.97;;;;;;;;;;5088566;28;20695;-84
2022/02/08 08:57:02;;;;;;;19.53;6.43;;;2.50;99.90;;;;;;5076016;28;20183;-85
2022/02/08 08:59:28;;;;;;;16.43;6.53;;;2.50;99.90;;;;;;5075985;28;20241;-85
2022/02/08 09:01:53;;;;;;;16.93;6.63;;;2.50;99.90;;;;;;5080436;28;20181;-84
2022/02/08 09:04:20;;;;;;;18.53;5.20;;;2.90;99.90;;;;;;5106802;28;20211;-85
2022/02/08 09:06:49;;;;;;;13.37;6.47;;;2.90;99.90;;;;;;5094428;28;20179;-84
2022/02/08 09:09:18;;;;;;;13.27;4.57;;;;;;;;;;5103985;28;20182;-85
2022/02/08 09:11:54;;;;;;;15.17;5.70;;;;;;;;;;5115100;28;20185;-85
2022/02/08 09:14:26;;;;;;;12.97;4.43;;;3.10;99.90;;;;;;5095555;28;20186;-84
2022/02/08 09:27:46;;;;;;;9.57;4.20;;;3.40;99.90;;;;;;5114314;28;20184;-85
2022/02/08 09:30:11;;;;;;;9.63;3.93;;;3.30;99.90;;;;;;5100460;28;20563;-86
2022/02/08 09:32:43;;;;;;;12.33;3.83;;;3.40;99.90;;;;;;5101953;28;20628;-84
2022/02/08 09:35:10;;;;;;;10.20;3.33;;;;;;;;;;5114142;28;20183;-85
2022/02/08 09:37:37;;;;;;;7.83;3.70;;;3.30;99.90;;;;;;5098718;28;20178;-85
2022/02/08 09:40:06;;;;;;;8.27;4.00;;;3.30;99.90;;;;;;5101767;28;20285;-85
2022/02/08 09:42:33;;;;;;;11.73;4.87;;;3.30;99.90;;;;;;5098783;28;20182;-86
2022/02/08 09:44:59;;;;;;;7.73;3.97;;;3.30;99.90;;;;;;5075842;28;20184;-85
2022/02/08 09:47:34;;;;;;;9.27;3.63;;;;;;;;;;5110031;28;20194;-85
2022/02/08 09:50:08;;;;;;;11.17;3.80;;;3.20;99.90;;;;;;5104080;28;20198;-85
2022/02/08 09:52:34;;;;;;;15.60;3.90;;;3.30;99.90;;;;;;5093254;28;20182;-85
2022/02/08 09:55:00;;;;;;;10.60;3.80;;;3.20;99.90;;;;;;5101445;28;20182;-85
2022/02/08 09:57:26;;;;;;;11.37;4.27;;;;;;;;;;5111300;28;20189;-86
2022/02/08 09:59:52;;;;;;;14.93;4.33;;;3.50;99.90;;;;;;5088327;28;20271;-85
2022/02/08 10:02:19;;;;;;;11.80;4.53;;;3.30;99.90;;;;;;5093927;28;20600;-89
2022/02/08 10:04:45;;;;;;;6.70;3.10;;;;;;;;;;5074992;28;20254;-86
2022/02/08 10:07:12;;;;;;;6.97;3.30;;;3.40;99.90;;;;;;5079948;28;20189;-85
2022/02/08 10:09:38;;;;;;;9.70;3.10;;;3.90;99.90;;;;;;5093529;28;20192;-84
2022/02/08 10:12:04;;;;;;;8.13;3.80;;;3.50;99.90;;;;;;5093111;28;20186;-84
2022/02/08 10:22:49;;;;;;;8.67;3.30;;;3.40;99.90;;;;;;5082402;28;20212;-84
2022/02/08 10:25:27;;;;;;;12.17;4.00;;;3.80;99.90;;;;;;5080492;28;20173;-84
2022/02/08 10:28:12;;;;;;;9.03;3.57;;;3.90;99.90;;;;;;5065972;28;20187;-85
2022/02/08 10:39:02;;;;;;;11.80;5.00;;;3.40;99.90;;;;;;5096764;28;20238;-88
2022/02/08 10:41:33;;;;;;;17.23;5.03;;;3.40;99.90;;;;;;5086664;28;20279;-84
2022/02/08 10:44:05;;;;;;;14.53;4.53;;;4.50;99.90;;;;;;5071104;28;20173;-84
2022/02/08 10:46:32;;;;;;;15.73;5.03;;;3.40;99.90;;;;;;5117528;28;20170;-88
2022/02/08 10:49:06;;;;;;;12.37;4.70;;;3.40;99.90;;;;;;5098591;28;20190;-86
2022/02/08 10:51:38;;;;;;;11.23;4.80;;;3.80;99.90;;;;;;5098353;28;20175;-86
2022/02/08 10:54:10;;;;;;;25.67;5.57;;;3.40;99.90;;;;;;5099506;28;20203;-92
2022/02/08 10:56:38;;;;;;;14.83;5.10;;;3.30;99.90;;;;;;5100093;28;20178;-87
2022/02/08 10:59:17;;;;;;;16.27;5.27;;;4.10;99.90;;;;;;5086187;28;20228;-90
2022/02/08 11:01:58;;;;;;;18.07;6.17;;;3.30;99.90;;;;;;5128997;28;20277;-85
2022/02/08 11:04:48;;;;;;;19.53;6.13;;;3.50;99.90;;;;;;5118162;28;20173;-90
2022/02/08 11:07:40;;;;;;;12.93;4.80;;;3.50;99.90;;;;;;5101651;28;20270;-89
2022/02/08 11:10:16;;;;;;;15.40;5.53;;;;;;;;;;5115152;28;20247;-84
2022/02/08 11:15:42;;;;;;;17.27;5.77;;;3.80;99.90;;;;;;5101221;28;20193;-85
2022/02/08 11:18:55;;;;;;;20.43;6.73;;;3.60;99.90;;;;;;5099761;28;20202;-85
2022/02/08 11:26:36;;;;;;;25.00;5.43;;;4.50;99.90;;;;;;5105363;28;20211;-85
2022/02/08 11:29:19;;;;;;;11.80;4.50;;;3.80;99.90;;;;;;5115495;28;20184;-85
2022/02/08 11:31:52;;;;;;;14.40;4.27;;;3.80;99.90;;;;;;5113074;28;20187;-85
2022/02/08 11:54:37;;;;;;;11.87;4.47;;;4.10;99.90;;;;;;5084227;28;20195;-88
2022/02/08 12:04:46;;;;;;;16.73;4.57;;;4.50;99.90;;;;;;5102542;28;20218;-85
2022/02/08 12:07:17;;;;;;;19.50;5.17;;;;;;;;;;5075611;28;20194;-85
2022/02/08 12:39:36;;;;;;;11.70;3.97;;;;;;;;;;5106467;28;20248;-87
2022/02/08 12:39:59;;;;;;;15.00;3.67;;;;;;;;;;5115693;28;20183;-86
2022/02/08 13:01:27;;;;;;;13.37;3.90;;;3.90;99.90;;;;;;5112666;28;20297;-86
2022/02/08 13:04:09;;;;;;;13.37;3.97;;;3.80;99.90;;;;;;5094707;28;20186;-84
2022/02/08 13:20:04;;;;;;;19.83;4.17;;;3.70;99.90;;;;;;5105544;28;20598;-85
2022/02/08 14:06:19;;;;;;;16.30;5.30;;;3.90;99.90;;;;;;5091624;28;20195;-84
2022/02/08 14:09:04;;;;;;;11.77;4.43;;;3.90;99.90;;;;;;5074746;28;20586;-84
2022/02/08 14:19:49;;;;;;;14.90;5.63;;;3.80;99.90;;;;;;5092333;28;20252;-83
2022/02/08 14:22:33;;;;;;;12.97;4.40;;;;;;;;;;5071327;28;20611;-85
2022/02/08 14:30:23;;;;;;;11.70;4.37;;;3.70;99.90;;;;;;5086851;28;20324;-85
2022/02/08 14:33:26;;;;;;;15.67;4.90;;;3.80;99.90;;;;;;5054784;28;20189;-84
2022/02/08 15:00:21;;;;;;;19.63;4.77;;;4.30;99.90;;;;;;5082873;28;20229;-85
2022/02/08 15:13:02;;;;;;;11.37;4.13;;;3.70;99.90;;;;;;5060676;28;20200;-85
2022/02/08 15:17:56;;;;;;;10.00;5.50;;;3.50;99.90;;;;;;5087348;28;20199;-83
2022/02/08 15:20:23;;;;;;;13.70;6.10;;;3.50;99.90;;;;;;5070376;28;20219;-85
2022/02/08 15:22:49;;;;;;;11.77;5.93;;;3.50;99.90;;;;;;5071024;28;20197;-86
2022/02/08 15:25:15;;;;;;;20.23;5.33;;;3.40;99.90;;;;;;5054083;28;20186;-84
2022/02/08 15:27:43;;;;;;;16.33;5.43;;;3.40;99.90;;;;;;5069381;28;20208;-84
2022/02/08 15:30:09;;;;;;;13.97;4.87;;;3.20;99.90;;;;;;5073205;28;20211;-85
2022/02/08 15:32:36;;;;;;;16.23;5.00;;;;;;;;;;5073248;28;20280;-85
2022/02/08 15:35:04;;;;;;;10.80;4.47;;;3.20;99.90;;;;;;5067807;28;20193;-84
2022/02/08 15:37:31;;;;;;;14.83;5.00;;;;;;;;;;5056828;28;20644;-84
2022/02/08 15:39:58;;;;;;;7.00;3.77;;;3.10;99.90;;;;;;5073417;28;20188;-85
2022/02/08 15:42:32;;;;;;;17.90;5.50;;;3.00;99.90;;;;;;5059657;28;20192;-85
2022/02/08 15:45:08;;;;;;;15.03;5.67;;;2.80;99.90;;;;;;5038709;28;20194;-84
2022/02/08 15:47:34;;;;;;;16.60;6.10;;;;;;;;;;5057610;28;20216;-85
2022/02/08 15:50:08;;;;;;;41.47;17.43;;;;;;;;;;5064332;28;20210;-84
2022/02/08 16:09:13;;;;;;;205.67;102.30;;;;;;;;;;5074692;28;20285;-87
2022/02/08 16:17:26;;;;;;;27.67;15.20;;;;;;;;;;5111641;28;20195;-87
2022/02/08 16:28:13;;;;;;;90.90;46.53;;;;;;;;;;5115723;28;20251;-85
2022/02/08 16:31:09;;;;;;;137.27;58.07;;;;;;;;;;5096279;28;20184;-86
2022/02/08 16:57:56;;;;;;;31.53;14.23;;;2.60;99.90;;;;;;5139019;28;20172;-87
2022/02/08 17:00:26;;;;;;;25.30;12.10;;;2.20;99.90;;;;;;5112803;28;20241;-86
2022/02/08 17:02:57;;;;;;;28.53;16.67;;;2.10;99.90;;;;;;5136517;28;20170;-87
2022/02/08 17:05:23;;;;;;;30.50;17.17;;;;;;;;;;5127856;28;20253;-87
2022/02/08 17:07:50;;;;;;;18.90;11.03;;;;;;;;;;5118321;28;20175;-86
2022/02/08 17:10:32;;;;;;;23.60;10.10;;;;;;;;;;5137207;28;20182;-88
2022/02/08 17:13:37;;;;;;;26.80;12.47;;;;;;;;;;5139025;28;20170;-88
2022/02/08 17:18:35;;;;;;;17.07;7.57;;;;;;;;;;5138644;28;20295;-91
2022/02/08 17:47:49;;;;;;;14.63;7.57;;;1.90;99.90;;;;;;5095446;28;20190;-86
2022/02/08 17:50:17;;;;;;;22.90;13.67;;;1.80;99.90;;;;;;5085092;28;20191;-86
2022/02/08 17:52:47;;;;;;;20.53;9.93;;;1.80;99.90;;;;;;5094539;28;20187;-87
2022/02/08 17:55:14;;;;;;;16.10;8.23;;;1.80;99.90;;;;;;5059378;28;20203;-86
2022/02/08 17:57:41;;;;;;;21.10;9.43;;;1.90;99.90;;;;;;5094261;28;20188;-86
2022/02/08 18:00:11;;;;;;;12.43;7.80;;;1.80;99.90;;;;;;5080169;28;20235;-86
2022/02/08 18:02:39;;;;;;;15.87;8.93;;;;;;;;;;5088659;28;20215;-85
2022/02/08 18:05:06;;;;;;;21.67;11.13;;;1.90;99.90;;;;;;5075062;28;20221;-85
2022/02/08 18:07:32;;;;;;;22.50;9.93;;;1.90;99.90;;;;;;5094867;28;20186;-85
2022/02/08 18:09:57;;;;;;;22.60;11.50;;;3.30;99.90;;;;;;5092023;28;20281;-85
2022/02/08 18:12:26;;;;;;;21.03;11.10;;;2.00;99.90;;;;;;5030659;28;20189;-86
2022/02/08 18:14:57;;;;;;;17.40;9.10;;;2.10;99.90;;;;;;5075877;28;20206;-86
2022/02/08 18:17:28;;;;;;;15.20;9.03;;;;;;;;;;5076939;28;20232;-85
2022/02/08 19:23:49;;;;;;;18.20;11.57;;;;;;;;;;5113442;28;20637;-85
2022/02/08 19:26:17;;;;;;;16.57;10.30;;;;;;;;;;5077761;28;20217;-85
2022/02/08 19:28:44;;;;;;;26.30;16.77;;;2.80;99.90;;;;;;5108484;28;20664;-85
2022/02/08 19:31:10;;;;;;;30.37;14.93;;;;;;;;;;5094991;28;20196;-88
2022/02/08 19:33:36;;;;;;;15.03;9.80;;;;;;;;;;5094594;28;20194;-84
2022/02/08 19:36:02;;;;;;;29.90;17.80;;;2.90;99.90;;;;;;5113346;28;20242;-85
2022/02/08 19:38:29;;;;;;;18.07;9.83;;;;;;;;;;5095300;28;20200;-84
2022/02/08 19:40:55;;;;;;;25.10;13.03;;;2.90;99.90;;;;;;5112611;28;20242;-83
2022/02/08 19:43:21;;;;;;;26.77;15.07;;;3.00;99.90;;;;;;5085451;28;20682;-85
2022/02/08 19:45:49;;;;;;;29.13;19.53;;;3.30;99.90;;;;;;5078412;28;20282;-85
2022/02/08 19:48:15;;;;;;;14.57;9.33;;;;;;;;;;5071910;28;20195;-84
2022/02/08 19:50:42;;;;;;;15.93;10.07;;;;;;;;;;5109431;28;20190;-84
2022/02/08 19:53:09;;;;;;;19.60;12.27;;;3.20;99.90;;;;;;5083619;28;20174;-84
2022/02/08 19:58:19;;;;;;;18.90;10.97;;;3.10;99.90;;;;;;5106827;28;20646;-85
2022/02/08 20:00:57;;;;;;;16.20;10.83;;;3.30;99.90;;;;;;5093908;28;20227;-85
2022/02/08 20:03:42;;;;;;;17.60;11.60;;;3.30;99.90;;;;;;5060516;28;20214;-85
2022/02/08 20:06:09;;;;;;;16.20;11.03;;;3.40;99.90;;;;;;5062362;28;20277;-83
2022/02/08 20:08:35;;;;;;;16.00;9.70;;;3.40;99.90;;;;;;5090914;28;20181;-83
2022/02/08 20:11:01;;;;;;;16.27;8.83;;;3.30;99.90;;;;;;5069227;28;20194;-84
2022/02/08 20:13:28;;;;;;;15.40;10.77;;;3.60;99.90;;;;;;5058926;28;20185;-85
2022/02/08 20:15:57;;;;;;;12.50;8.53;;;0.80;99.90;;;;;;5084280;28;20185;-82
2022/02/08 20:18:23;;;;;;;14.47;10.10;;;;;;;;;;5083762;28;20176;-83
2022/02/08 20:20:52;;;;;;;17.23;11.03;;;3.70;99.90;;;;;;5083613;28;20242;-84
2022/02/08 20:23:20;;;;;;;14.70;8.23;;;3.70;99.90;;;;;;5066717;28;20186;-84
2022/02/08 20:25:54;;;;;;;12.63;7.63;;;;;;;;;;5058793;28;20596;-84
2022/02/08 20:28:30;;;;;;;15.33;8.90;;;;;;;;;;5085048;28;20190;-85
2022/02/08 20:30:58;;;;;;;15.10;10.00;;;;;;;;;;5084602;28;20186;-84
2022/02/08 20:33:24;;;;;;;16.47;10.53;;;3.80;99.90;;;;;;5056493;28;20572;-85
2022/02/08 20:35:50;;;;;;;15.47;9.70;;;;;;;;;;5070661;28;20214;-86
2022/02/08 20:38:17;;;;;;;19.57;10.33;;;;;;;;;;5086790;28;20585;-84
2022/02/08 20:40:43;;;;;;;18.43;11.83;;;4.00;99.90;;;;;;5057441;28;20742;-85
2022/02/08 20:43:11;;;;;;;14.03;8.80;;;;;;;;;;5068263;28;20200;-84
2022/02/08 20:45:39;;;;;;;16.80;11.77;;;3.90;99.90;;;;;;5084902;28;20610;-83
2022/02/08 20:48:06;;;;;;;18.70;12.07;;;3.90;99.90;;;;;;5066537;28;20275;-84
2022/02/08 20:50:32;;;;;;;13.10;8.20;;;3.90;99.90;;;;;;5068561;28;20233;-84
2022/02/08 20:53:07;;;;;;;16.47;11.67;;;4.00;99.90;;;;;;5056986;28;20195;-84
2022/02/08 20:56:09;;;;;;;12.93;8.23;;;4.00;99.90;;;;;;5065958;28;20650;-84
2022/02/08 20:58:49;;;;;;;14.97;9.87;;;;;;;;;;5081356;28;20191;-85
2022/02/08 21:01:11;;;;;;;17.30;11.47;;;4.10;99.90;;;;;;5103792;28;20292;-83
2022/02/08 21:03:51;;;;;;;13.73;8.43;;;;;;;;;;5088038;28;20194;-84
2022/02/08 21:06:21;;;;;;;11.37;8.13;;;4.20;99.90;;;;;;5106358;28;20187;-84
2022/02/08 21:08:47;;;;;;;13.93;8.43;;;;;;;;;;5105202;28;20215;-83
2022/02/08 21:11:13;;;;;;;10.83;6.53;;;;;;;;;;5102835;28;20594;-84
2022/02/08 21:13:47;;;;;;;13.63;9.10;;;;;;;;;;5096673;28;20191;-85
2022/02/08 21:16:25;;;;;;;16.97;10.13;;;4.50;99.90;;;;;;5093997;28;20222;-84
2022/02/08 21:18:51;;;;;;;15.13;10.40;;;;;;;;;;5095139;28;20651;-85
2022/02/08 21:21:17;;;;;;;17.70;11.33;;;4.50;99.90;;;;;;5093994;28;20206;-84
2022/02/08 21:23:44;;;;;;;8.23;5.77;;;4.80;99.90;;;;;;5076546;28;20247;-84
2022/02/08 21:26:17;;;;;;;11.90;9.03;;;4.60;99.90;;;;;;5093576;28;20210;-85
2022/02/08 21:31:42;;;;;;;11.80;7.33;;;;;;;;;;5095566;28;20536;-84
2022/02/08 21:50:38;;;;;;;13.23;8.33;;;4.90;99.90;;;;;;5092794;28;20281;-85
2022/02/08 21:53:01;;;;;;;12.97;7.43;;;4.90;99.90;;;;;;5094269;28;20211;-84